Time;durP1;ratioP1;P1;durP2;ratioP2;P2;SDS_P1;SDS_P2;PMS_P1;PMS_P2;Temp;Humidity;BMP_temperature;BMP_pressure;BME280_temperature;BME280_humidity;BME280_pressure;Samples;Min_cycle;Max_cycle;Signal;HPM_P1;HPM_P2
2021/08/17 00:01:03;;;;;;;1.67;0.65;;;16.30;99.90;;;;;;5065642;28;20387;-72
2021/08/17 00:03:28;;;;;;;1.95;0.50;;;15.80;99.90;;;;;;5071434;28;20083;-72
2021/08/17 00:05:54;;;;;;;2.33;0.50;;;15.70;99.90;;;;;;5056203;28;20051;-72
2021/08/17 00:08:20;;;;;;;1.25;0.40;;;15.40;99.90;;;;;;5053363;28;20033;-72
2021/08/17 00:10:46;;;;;;;2.22;0.80;;;15.60;99.90;;;;;;5067906;28;20033;-73
2021/08/17 00:13:11;;;;;;;1.77;0.50;;;16.10;99.90;;;;;;5071681;28;20032;-72
2021/08/17 00:15:37;;;;;;;1.10;0.43;;;16.30;99.90;;;;;;5069176;28;20032;-72
2021/08/17 00:18:03;;;;;;;1.60;0.30;;;16.30;99.90;;;;;;5068513;28;20512;-72
2021/08/17 00:20:29;;;;;;;1.02;0.30;;;16.30;99.90;;;;;;5070220;28;20040;-73
2021/08/17 00:22:55;;;;;;;1.85;0.57;;;16.10;99.90;;;;;;5070775;28;20039;-72
2021/08/17 00:25:21;;;;;;;1.08;0.47;;;16.30;99.90;;;;;;5064398;28;20410;-72
2021/08/17 00:27:46;;;;;;;2.95;0.50;;;16.00;99.90;;;;;;5063171;28;20566;-72
2021/08/17 00:30:13;;;;;;;2.05;0.80;;;16.20;99.90;;;;;;5070157;28;20387;-72
2021/08/17 00:32:38;;;;;;;1.25;0.40;;;16.20;99.90;;;;;;5058664;28;20033;-72
2021/08/17 00:35:04;;;;;;;2.75;0.70;;;15.80;99.90;;;;;;5059981;28;20048;-72
2021/08/17 00:37:30;;;;;;;1.67;0.52;;;15.50;99.90;;;;;;5067946;28;20032;-72
2021/08/17 00:39:57;;;;;;;1.60;0.70;;;15.60;99.90;;;;;;5069651;28;20494;-72
2021/08/17 00:42:23;;;;;;;4.05;0.90;;;15.70;99.90;;;;;;5069115;28;20029;-72
2021/08/17 00:44:50;;;;;;;0.88;0.43;;;15.60;99.90;;;;;;5070721;28;20053;-72
2021/08/17 00:47:16;;;;;;;1.73;0.93;;;15.70;99.90;;;;;;5059012;28;20569;-72
2021/08/17 00:49:42;;;;;;;1.75;0.32;;;16.30;99.90;;;;;;5081848;28;20036;-72
2021/08/17 00:52:10;;;;;;;1.48;0.32;;;16.40;99.90;;;;;;5067342;28;20043;-72
2021/08/17 00:54:43;;;;;;;2.28;1.00;;;16.50;99.90;;;;;;5051971;28;20383;-72
2021/08/17 00:57:13;;;;;;;1.27;0.60;;;16.40;99.90;;;;;;5041454;28;20066;-72
2021/08/17 00:59:40;;;;;;;6.90;1.00;;;16.50;99.90;;;;;;5036426;28;20123;-72
2021/08/17 01:02:06;;;;;;;2.15;0.50;;;16.40;99.90;;;;;;5061728;28;20421;-73
2021/08/17 01:04:33;;;;;;;0.80;0.40;;;16.10;99.90;;;;;;5054330;28;20045;-72
2021/08/17 01:07:02;;;;;;;3.70;0.80;;;16.10;99.90;;;;;;5068368;28;20035;-72
2021/08/17 01:09:28;;;;;;;3.13;0.90;;;16.30;99.80;;;;;;5069218;28;20033;-72
2021/08/17 01:11:53;;;;;;;9.10;1.35;;;16.50;99.40;;;;;;5066740;28;20390;-72
2021/08/17 01:14:20;;;;;;;2.30;0.65;;;16.20;99.90;;;;;;5070436;28;20045;-72
2021/08/17 01:16:47;;;;;;;2.30;1.00;;;16.30;99.90;;;;;;5063059;28;20090;-73
2021/08/17 01:19:17;;;;;;;1.75;0.70;;;16.10;99.90;;;;;;5068372;28;20103;-72
2021/08/17 01:21:43;;;;;;;0.95;0.57;;;16.40;99.00;;;;;;5068888;28;20503;-72
2021/08/17 01:24:09;;;;;;;1.35;0.50;;;16.60;99.00;;;;;;5068109;28;20108;-72
2021/08/17 01:26:35;;;;;;;1.83;0.80;;;16.80;98.40;;;;;;5069443;28;20080;-72
2021/08/17 01:29:01;;;;;;;3.10;0.90;;;16.70;99.00;;;;;;5067632;28;20080;-72
2021/08/17 01:31:26;;;;;;;2.13;0.63;;;16.50;99.00;;;;;;5058681;28;20097;-72
2021/08/17 01:33:52;;;;;;;1.65;0.77;;;16.90;98.30;;;;;;5064627;28;20526;-72
2021/08/17 01:36:18;;;;;;;2.20;0.95;;;16.90;97.80;;;;;;5054754;28;20043;-72
2021/08/17 01:38:51;;;;;;;2.63;0.80;;;16.60;99.30;;;;;;5061257;28;20142;-72
2021/08/17 01:41:17;;;;;;;1.25;0.50;;;16.60;98.90;;;;;;5064976;28;20391;-73
2021/08/17 01:43:50;;;;;;;2.50;0.90;;;16.50;99.20;;;;;;5053777;28;20044;-72
2021/08/17 01:46:16;;;;;;;2.45;0.70;;;16.50;99.60;;;;;;5067863;28;20063;-72
2021/08/17 01:48:43;;;;;;;1.95;0.65;;;16.40;99.60;;;;;;5064162;28;20056;-72
2021/08/17 01:51:10;;;;;;;2.75;0.90;;;16.40;99.50;;;;;;5071762;28;20036;-72
2021/08/17 01:53:37;;;;;;;2.90;0.85;;;16.30;99.90;;;;;;5072969;28;20111;-72
2021/08/17 01:56:13;;;;;;;1.55;0.43;;;16.30;99.90;;;;;;5072736;28;20386;-73
2021/08/17 01:58:41;;;;;;;3.95;0.88;;;16.30;99.90;;;;;;5068194;28;20032;-72
2021/08/17 02:01:09;;;;;;;4.15;0.85;;;16.20;99.90;;;;;;5072438;28;20032;-73
2021/08/17 02:03:35;;;;;;;4.78;1.92;;;16.30;99.90;;;;;;5074056;28;20028;-72
2021/08/17 02:06:01;;;;;;;2.33;1.10;;;15.30;99.90;;;;;;5072268;28;20040;-72
2021/08/17 02:08:27;;;;;;;3.28;1.25;;;14.90;99.90;;;;;;5071544;28;20039;-74
2021/08/17 02:10:53;;;;;;;4.13;1.10;;;14.90;99.90;;;;;;5069911;28;20032;-73
2021/08/17 02:13:20;;;;;;;3.85;1.00;;;15.10;99.90;;;;;;5065847;28;20123;-72
2021/08/17 02:15:47;;;;;;;4.03;1.25;;;15.20;99.90;;;;;;5053817;28;20056;-72
2021/08/17 02:18:13;;;;;;;2.40;0.80;;;15.60;99.90;;;;;;5060519;28;20037;-73
2021/08/17 02:20:39;;;;;;;2.72;1.13;;;15.70;99.90;;;;;;5071790;28;20403;-73
2021/08/17 02:23:06;;;;;;;2.58;0.88;;;15.70;99.90;;;;;;5072580;28;20521;-73
2021/08/17 02:25:31;;;;;;;3.55;1.23;;;15.70;99.90;;;;;;5072090;28;20048;-72
2021/08/17 02:27:57;;;;;;;3.65;1.10;;;15.50;99.90;;;;;;5071012;28;20086;-72
2021/08/17 02:30:23;;;;;;;2.53;1.20;;;15.70;99.90;;;;;;5069460;28;20040;-72
2021/08/17 02:32:48;;;;;;;2.13;0.95;;;15.60;99.90;;;;;;5070805;28;20054;-72
2021/08/17 02:35:14;;;;;;;3.05;1.13;;;15.80;99.90;;;;;;5060589;28;20061;-72
2021/08/17 02:37:40;;;;;;;3.13;1.45;;;15.70;99.90;;;;;;5063906;28;20032;-73
2021/08/17 02:40:06;;;;;;;4.40;1.17;;;15.80;99.90;;;;;;5053302;28;20041;-72
2021/08/17 02:42:33;;;;;;;5.75;1.20;;;15.70;99.90;;;;;;5069022;28;20036;-73
2021/08/17 02:44:59;;;;;;;3.05;1.05;;;15.50;99.90;;;;;;5072416;28;20131;-72
2021/08/17 02:47:26;;;;;;;2.53;0.95;;;15.60;99.90;;;;;;5061068;28;20025;-72
2021/08/17 02:49:52;;;;;;;2.53;1.00;;;15.40;99.90;;;;;;5066894;28;20051;-73
2021/08/17 02:52:18;;;;;;;5.13;1.30;;;15.70;99.90;;;;;;5052566;28;20060;-72
2021/08/17 02:54:44;;;;;;;2.75;0.80;;;15.50;99.90;;;;;;5053002;28;20495;-73
2021/08/17 02:57:10;;;;;;;3.10;1.20;;;15.20;99.90;;;;;;5060948;28;20063;-72
2021/08/17 02:59:36;;;;;;;2.78;0.93;;;15.20;99.90;;;;;;5068673;28;20548;-72
2021/08/17 03:02:02;;;;;;;3.17;1.10;;;15.10;99.90;;;;;;5070249;28;20505;-72
2021/08/17 03:04:28;;;;;;;2.95;0.80;;;15.10;99.90;;;;;;5051559;28;20033;-73
2021/08/17 03:06:55;;;;;;;2.72;1.17;;;15.20;99.90;;;;;;5062866;28;20040;-73
2021/08/17 03:09:21;;;;;;;2.85;0.85;;;15.30;99.90;;;;;;5058981;28;20036;-73
2021/08/17 03:11:47;;;;;;;3.25;1.02;;;15.50;99.90;;;;;;5060284;28;20052;-73
2021/08/17 03:14:12;;;;;;;2.83;1.35;;;15.60;99.90;;;;;;5065180;28;20105;-73
2021/08/17 03:16:39;;;;;;;2.97;1.15;;;15.50;99.90;;;;;;5059431;28;20432;-73
2021/08/17 03:19:05;;;;;;;3.38;1.15;;;15.60;99.90;;;;;;5057681;28;20040;-73
2021/08/17 03:21:31;;;;;;;3.88;1.40;;;15.40;99.90;;;;;;5063209;28;20502;-73
2021/08/17 03:23:57;;;;;;;5.10;1.10;;;15.60;99.90;;;;;;5063153;28;20043;-73
2021/08/17 03:26:23;;;;;;;2.88;1.08;;;15.30;99.90;;;;;;5056460;28;20044;-73
2021/08/17 03:28:48;;;;;;;2.53;0.90;;;15.20;99.90;;;;;;5060856;28;20047;-73
2021/08/17 03:31:14;;;;;;;4.35;1.80;;;15.10;99.90;;;;;;5063531;28;20040;-73
2021/08/17 03:33:40;;;;;;;3.20;1.45;;;15.30;99.90;;;;;;5061475;28;20029;-73
2021/08/17 03:36:06;;;;;;;6.38;1.70;;;15.30;99.90;;;;;;5058743;28;20032;-73
2021/08/17 03:38:33;;;;;;;3.17;1.10;;;15.00;99.90;;;;;;5056079;28;20037;-74
2021/08/17 03:40:58;;;;;;;2.80;1.05;;;15.10;99.90;;;;;;5058254;28;20032;-73
2021/08/17 03:43:25;;;;;;;4.95;1.20;;;15.20;99.90;;;;;;5061317;28;20035;-73
2021/08/17 03:45:51;;;;;;;3.95;1.17;;;15.00;99.90;;;;;;5063793;28;20040;-72
2021/08/17 03:48:17;;;;;;;5.00;1.48;;;14.80;99.90;;;;;;5063995;28;20575;-73
2021/08/17 03:50:43;;;;;;;4.70;1.70;;;15.20;99.90;;;;;;5063745;28;20036;-73
2021/08/17 03:53:09;;;;;;;3.65;1.15;;;15.10;99.90;;;;;;5061514;28;20045;-73
2021/08/17 03:55:35;;;;;;;3.10;1.15;;;15.10;99.90;;;;;;5062612;28;20063;-73
2021/08/17 03:58:00;;;;;;;5.05;1.90;;;15.30;99.90;;;;;;5063041;28;20475;-73
2021/08/17 04:00:28;;;;;;;4.40;1.45;;;15.40;99.90;;;;;;5062343;28;20024;-73
2021/08/17 04:02:55;;;;;;;3.70;1.35;;;15.30;99.90;;;;;;5063787;28;20028;-73
2021/08/17 04:05:21;;;;;;;4.97;1.10;;;15.60;99.90;;;;;;5062648;28;20047;-72
2021/08/17 04:07:47;;;;;;;3.22;1.20;;;15.90;99.50;;;;;;5053645;28;20045;-73
2021/08/17 04:10:13;;;;;;;3.38;1.33;;;15.80;99.90;;;;;;5039041;28;20465;-73
2021/08/17 04:12:39;;;;;;;3.42;1.27;;;15.90;99.90;;;;;;5045428;28;20037;-73
2021/08/17 04:15:06;;;;;;;4.13;1.38;;;15.90;99.70;;;;;;5051128;28;20083;-72
2021/08/17 04:17:32;;;;;;;7.93;1.48;;;16.00;99.90;;;;;;5062090;28;20082;-73
2021/08/17 04:19:58;;;;;;;3.17;1.40;;;15.90;99.90;;;;;;5062479;28;20032;-73
2021/08/17 04:22:24;;;;;;;3.50;1.63;;;15.80;99.90;;;;;;5063275;28;20466;-73
2021/08/17 04:24:50;;;;;;;2.63;1.20;;;15.80;99.80;;;;;;5060830;28;20040;-73
2021/08/17 04:27:16;;;;;;;4.43;1.25;;;15.80;99.80;;;;;;5060572;28;20068;-73
2021/08/17 04:29:44;;;;;;;3.05;1.30;;;16.00;99.90;;;;;;5062321;28;20035;-72
2021/08/17 04:32:11;;;;;;;3.65;1.30;;;15.90;99.90;;;;;;5063090;28;20036;-73
2021/08/17 04:34:36;;;;;;;5.82;1.80;;;16.20;98.40;;;;;;5061395;28;20037;-73
2021/08/17 04:37:03;;;;;;;3.28;1.35;;;16.10;99.00;;;;;;5061231;28;20047;-74
2021/08/17 04:39:28;;;;;;;4.80;1.15;;;16.20;98.70;;;;;;5063978;28;20050;-73
2021/08/17 04:41:54;;;;;;;4.95;1.63;;;16.30;99.30;;;;;;5061597;28;20037;-72
2021/08/17 04:44:20;;;;;;;3.60;1.40;;;16.00;98.80;;;;;;5062897;28;20108;-73
2021/08/17 04:46:45;;;;;;;4.07;1.58;;;15.70;99.90;;;;;;5059844;28;20048;-73
2021/08/17 04:49:11;;;;;;;3.78;1.00;;;15.50;99.90;;;;;;5055473;28;20036;-73
2021/08/17 04:51:37;;;;;;;4.68;1.60;;;15.40;99.90;;;;;;5063586;28;20037;-73
2021/08/17 04:54:03;;;;;;;6.03;1.60;;;15.40;99.90;;;;;;5050861;28;20063;-73
2021/08/17 04:56:28;;;;;;;3.85;1.20;;;15.60;99.90;;;;;;5050757;28;20044;-73
2021/08/17 04:58:54;;;;;;;3.75;1.40;;;15.80;99.70;;;;;;5059312;28;20624;-72
2021/08/17 05:01:20;;;;;;;5.75;1.77;;;15.90;99.60;;;;;;5061556;28;20530;-73
2021/08/17 05:03:46;;;;;;;4.07;1.67;;;16.20;99.20;;;;;;5063130;28;20041;-73
2021/08/17 05:06:11;;;;;;;4.32;1.35;;;16.10;99.90;;;;;;5061359;28;20106;-73
2021/08/17 05:08:40;;;;;;;4.57;1.92;;;16.00;99.90;;;;;;5062396;28;20090;-73
2021/08/17 05:11:05;;;;;;;3.28;1.30;;;16.20;99.90;;;;;;5041746;28;20461;-73
2021/08/17 05:13:31;;;;;;;7.93;1.80;;;16.30;99.20;;;;;;5044194;28;20043;-73
2021/08/17 05:15:58;;;;;;;4.03;1.42;;;16.20;99.90;;;;;;5061331;28;20392;-73
2021/08/17 05:18:23;;;;;;;4.30;1.60;;;16.20;98.90;;;;;;5056876;28;20033;-73
2021/08/17 05:20:50;;;;;;;3.05;1.33;;;16.30;99.40;;;;;;5061021;28;20755;-73
2021/08/17 05:23:16;;;;;;;4.47;1.67;;;16.40;98.50;;;;;;5066569;28;20037;-73
2021/08/17 05:25:41;;;;;;;4.50;1.50;;;16.60;98.30;;;;;;5066096;28;20106;-73
2021/08/17 05:28:07;;;;;;;3.10;1.42;;;16.60;98.00;;;;;;5070737;28;20040;-73
2021/08/17 05:30:33;;;;;;;5.38;1.40;;;16.50;98.40;;;;;;5065192;28;20037;-76
2021/08/17 05:32:58;;;;;;;4.65;1.88;;;16.60;98.20;;;;;;5065589;28;20427;-75
2021/08/17 05:35:24;;;;;;;3.30;1.50;;;16.40;99.00;;;;;;5064182;28;20035;-74
2021/08/17 05:37:50;;;;;;;7.47;1.65;;;16.40;98.80;;;;;;5056463;28;20425;-78
2021/08/17 05:40:16;;;;;;;3.88;1.27;;;16.50;98.40;;;;;;5059567;28;20063;-74
2021/08/17 05:42:42;;;;;;;3.72;1.75;;;16.40;99.00;;;;;;5067152;28;20090;-73
2021/08/17 05:45:08;;;;;;;3.65;1.75;;;16.50;98.40;;;;;;5051349;28;20053;-74
2021/08/17 05:47:34;;;;;;;6.68;1.60;;;16.70;98.20;;;;;;5049181;28;20048;-74
2021/08/17 05:50:00;;;;;;;7.32;1.52;;;16.70;98.40;;;;;;5050827;28;20048;-76
2021/08/17 05:52:26;;;;;;;4.97;1.27;;;16.70;99.20;;;;;;5065679;28;20111;-75
2021/08/17 05:54:51;;;;;;;3.53;1.20;;;16.70;98.80;;;;;;5066367;28;20089;-76
2021/08/17 05:57:18;;;;;;;4.78;1.65;;;16.70;99.20;;;;;;5063784;28;20028;-77
2021/08/17 05:59:45;;;;;;;5.47;1.88;;;16.60;99.30;;;;;;5065539;28;20596;-77
2021/08/17 06:02:10;;;;;;;6.50;1.48;;;16.60;99.90;;;;;;5062000;28;20029;-76
2021/08/17 06:04:37;;;;;;;4.43;1.67;;;16.60;99.90;;;;;;5066516;28;20033;-75
2021/08/17 06:07:03;;;;;;;3.97;1.58;;;16.50;99.90;;;;;;5065578;28;20059;-76
2021/08/17 06:09:28;;;;;;;4.88;1.95;;;16.40;99.90;;;;;;5066366;28;20037;-76
2021/08/17 06:11:57;;;;;;;3.53;1.63;;;16.30;99.90;;;;;;5053895;28;20037;-76
2021/08/17 06:14:24;;;;;;;3.67;1.63;;;16.30;99.90;;;;;;5063378;28;20031;-77
2021/08/17 06:16:51;;;;;;;5.60;1.40;;;16.30;99.90;;;;;;5054655;28;20052;-77
2021/08/17 06:19:17;;;;;;;4.25;1.70;;;16.00;99.90;;;;;;5063430;28;20039;-75
2021/08/17 06:21:43;;;;;;;4.38;1.48;;;16.30;99.90;;;;;;5064756;28;20045;-76
2021/08/17 06:24:08;;;;;;;3.95;1.60;;;16.50;99.40;;;;;;5066105;28;20037;-77
2021/08/17 06:26:34;;;;;;;4.15;1.55;;;16.60;98.60;;;;;;5055848;28;20536;-76
2021/08/17 06:29:01;;;;;;;3.30;1.20;;;16.60;99.40;;;;;;5054682;28;20043;-75
2021/08/17 06:31:26;;;;;;;3.75;1.80;;;16.60;99.90;;;;;;5063903;28;20097;-76
2021/08/17 06:33:54;;;;;;;5.53;2.10;;;16.90;99.60;;;;;;5064568;28;20545;-76
2021/08/17 06:36:21;;;;;;;4.10;1.65;;;17.00;99.30;;;;;;5055070;28;20601;-76
2021/08/17 06:38:47;;;;;;;3.13;1.15;;;17.30;98.80;;;;;;5045575;28;20041;-76
2021/08/17 06:41:14;;;;;;;4.25;1.27;;;17.70;98.60;;;;;;5041245;28;20399;-77
2021/08/17 06:43:41;;;;;;;6.07;1.58;;;17.90;98.60;;;;;;5045852;28;20402;-76
2021/08/17 06:46:07;;;;;;;4.60;1.42;;;18.10;98.50;;;;;;5044398;28;20056;-76
2021/08/17 06:48:33;;;;;;;3.85;1.35;;;18.40;97.70;;;;;;5063093;28;20036;-76
2021/08/17 06:50:59;;;;;;;3.88;1.73;;;18.40;97.00;;;;;;5063433;28;20379;-77
2021/08/17 06:53:24;;;;;;;7.72;1.50;;;18.50;97.00;;;;;;5047207;28;20044;-77
2021/08/17 06:55:50;;;;;;;3.08;1.52;;;18.70;98.10;;;;;;5047695;28;20040;-77
2021/08/17 06:58:16;;;;;;;4.95;2.47;;;18.70;97.80;;;;;;5060853;28;20143;-77
2021/08/17 07:00:44;;;;;;;3.30;1.55;;;18.80;97.60;;;;;;5059830;28;20090;-76
2021/08/17 07:03:10;;;;;;;9.95;1.95;;;19.30;95.90;;;;;;5061553;28;20036;-76
2021/08/17 07:05:38;;;;;;;4.75;1.60;;;20.50;97.50;;;;;;5061712;28;20045;-76
2021/08/17 07:08:05;;;;;;;5.80;1.60;;;21.80;95.60;;;;;;5059757;28;20033;-76
2021/08/17 07:10:31;;;;;;;3.83;2.00;;;22.80;94.70;;;;;;5065211;28;20379;-76
2021/08/17 07:12:56;;;;;;;4.13;1.50;;;24.10;93.20;;;;;;5044357;28;20033;-77
2021/08/17 07:15:22;;;;;;;3.83;1.50;;;24.80;92.00;;;;;;5044803;28;20036;-76
2021/08/17 07:17:48;;;;;;;4.13;1.65;;;25.10;91.10;;;;;;5045604;28;20033;-75
2021/08/17 07:20:15;;;;;;;4.65;1.50;;;25.80;87.90;;;;;;5063986;28;20633;-76
2021/08/17 07:22:41;;;;;;;3.45;1.75;;;26.70;84.70;;;;;;5056100;28;20146;-76
2021/08/17 07:25:07;;;;;;;5.05;1.70;;;26.70;84.30;;;;;;5059459;28;20071;-76
2021/08/17 07:27:33;;;;;;;4.07;2.00;;;27.10;83.90;;;;;;5060897;28;20036;-76
2021/08/17 07:29:59;;;;;;;4.47;1.85;;;27.80;86.20;;;;;;5050690;28;20036;-76
2021/08/17 07:32:24;;;;;;;9.88;1.60;;;27.70;86.30;;;;;;5065566;28;20130;-76
2021/08/17 07:34:50;;;;;;;4.00;1.63;;;27.00;87.20;;;;;;5061881;28;20102;-76
2021/08/17 07:37:16;;;;;;;3.58;1.20;;;26.60;84.80;;;;;;5045276;28;20655;-76
2021/08/17 07:39:42;;;;;;;3.47;1.40;;;27.40;85.30;;;;;;5045119;28;20032;-75
2021/08/17 07:42:07;;;;;;;3.95;1.52;;;27.70;85.20;;;;;;5058512;28;20072;-76
2021/08/17 07:44:34;;;;;;;3.72;1.75;;;27.40;85.50;;;;;;5062382;28;20040;-77
2021/08/17 07:47:01;;;;;;;3.35;1.27;;;25.80;84.20;;;;;;5063727;28;20068;-76
2021/08/17 07:49:27;;;;;;;3.42;1.38;;;23.30;88.90;;;;;;5064593;28;20475;-76
2021/08/17 07:51:52;;;;;;;4.78;1.33;;;21.90;90.30;;;;;;5060568;28;20050;-77
2021/08/17 07:54:19;;;;;;;5.68;1.63;;;21.20;91.70;;;;;;5064321;28;20032;-76
2021/08/17 07:56:46;;;;;;;4.88;1.40;;;20.70;92.90;;;;;;5065050;28;20462;-76
2021/08/17 07:59:11;;;;;;;3.20;1.45;;;20.60;93.50;;;;;;5044819;28;20397;-76
2021/08/17 08:01:37;;;;;;;3.78;1.70;;;20.30;93.60;;;;;;5062861;28;20039;-76
2021/08/17 08:04:03;;;;;;;3.20;1.65;;;20.30;93.50;;;;;;5064398;28;20056;-76
2021/08/17 08:06:29;;;;;;;3.10;1.50;;;20.30;93.80;;;;;;5063487;28;20045;-75
2021/08/17 08:08:55;;;;;;;3.17;1.20;;;20.10;92.60;;;;;;5064159;28;20024;-76
2021/08/17 08:11:21;;;;;;;3.55;1.52;;;20.20;93.30;;;;;;5056546;28;20514;-76
2021/08/17 08:13:47;;;;;;;6.70;1.48;;;20.70;93.40;;;;;;5061179;28;20033;-76
2021/08/17 08:16:13;;;;;;;3.10;1.30;;;20.80;93.60;;;;;;5060809;28;20050;-77
2021/08/17 08:18:39;;;;;;;9.18;1.90;;;20.80;94.40;;;;;;5064597;28;20366;-76
2021/08/17 08:21:05;;;;;;;3.45;1.50;;;20.90;94.30;;;;;;5062517;28;20036;-76
2021/08/17 08:23:31;;;;;;;2.95;1.50;;;21.10;93.50;;;;;;5043864;28;20025;-76
2021/08/17 08:25:57;;;;;;;4.05;1.30;;;21.10;93.40;;;;;;5049702;28;20048;-76
2021/08/17 08:28:23;;;;;;;3.05;1.33;;;21.20;92.90;;;;;;5062538;28;20395;-76
2021/08/17 08:30:49;;;;;;;4.60;2.00;;;21.30;92.90;;;;;;5064614;28;20040;-76
2021/08/17 08:33:14;;;;;;;2.75;0.95;;;21.20;92.80;;;;;;5057633;28;20379;-76
2021/08/17 08:35:40;;;;;;;3.08;1.23;;;22.00;91.40;;;;;;5052788;28;20498;-76
2021/08/17 08:38:06;;;;;;;2.80;1.02;;;24.00;89.30;;;;;;5064357;28;20041;-75
2021/08/17 08:40:33;;;;;;;4.30;1.55;;;24.50;88.60;;;;;;5063266;28;20571;-75
2021/08/17 08:42:58;;;;;;;4.35;1.30;;;25.30;88.50;;;;;;5063746;28;20398;-75
2021/08/17 08:45:24;;;;;;;4.55;1.60;;;25.40;86.30;;;;;;5063845;28;20045;-76
2021/08/17 08:47:50;;;;;;;6.20;1.08;;;25.40;85.20;;;;;;5060849;28;20038;-77
2021/08/17 08:50:15;;;;;;;3.15;1.30;;;25.50;86.40;;;;;;5063176;28;20112;-77
2021/08/17 08:52:41;;;;;;;3.35;1.13;;;25.20;85.50;;;;;;5064335;28;20037;-76
2021/08/17 08:55:09;;;;;;;3.28;1.25;;;25.10;87.20;;;;;;5046426;28;20033;-76
2021/08/17 08:57:35;;;;;;;4.35;1.20;;;25.40;86.60;;;;;;5051657;28;20048;-75
2021/08/17 09:00:03;;;;;;;3.50;1.35;;;25.70;85.60;;;;;;5067294;28;20041;-76
2021/08/17 09:02:31;;;;;;;2.90;1.23;;;25.30;86.70;;;;;;5051184;28;20064;-76
2021/08/17 09:04:58;;;;;;;6.45;1.35;;;24.60;87.90;;;;;;5048697;28;20364;-76
2021/08/17 09:07:39;;;;;;;3.67;1.10;;;23.90;90.10;;;;;;5053943;28;20606;-77
2021/08/17 09:10:14;;;;;;;5.72;1.25;;;23.80;89.30;;;;;;5067183;28;20040;-76
2021/08/17 09:12:46;;;;;;;2.50;1.00;;;23.80;89.90;;;;;;5062305;28;20475;-76
2021/08/17 09:15:16;;;;;;;2.55;1.13;;;23.20;89.70;;;;;;5060647;28;20033;-77
2021/08/17 09:17:43;;;;;;;3.45;1.30;;;23.40;90.30;;;;;;5048009;28;20073;-76
2021/08/17 09:20:28;;;;;;;2.75;0.93;;;23.70;90.10;;;;;;5060883;28;20040;-76
2021/08/17 09:22:53;;;;;;;2.97;1.08;;;23.70;91.10;;;;;;5066906;28;20033;-76
2021/08/17 09:25:31;;;;;;;2.42;0.90;;;23.80;89.30;;;;;;5040679;28;20068;-76
2021/08/17 09:28:27;;;;;;;3.65;0.75;;;23.80;90.70;;;;;;5046780;28;20043;-77
2021/08/17 09:30:53;;;;;;;2.28;0.95;;;23.30;87.00;;;;;;5047727;28;20045;-76
2021/08/17 09:33:19;;;;;;;2.40;0.70;;;23.40;89.20;;;;;;5047481;28;20035;-77
2021/08/17 09:35:45;;;;;;;3.13;0.63;;;23.50;88.70;;;;;;5064727;28;20119;-76
2021/08/17 09:38:12;;;;;;;2.42;0.90;;;23.90;89.40;;;;;;5057610;28;20025;-77
2021/08/17 09:40:39;;;;;;;2.17;1.00;;;23.80;86.20;;;;;;5052897;28;20047;-75
2021/08/17 09:43:17;;;;;;;2.13;0.73;;;23.80;88.10;;;;;;5053902;28;20472;-76
2021/08/17 09:45:44;;;;;;;1.33;0.60;;;24.00;87.00;;;;;;5048930;28;20063;-76
2021/08/17 09:48:12;;;;;;;1.60;0.70;;;24.00;86.90;;;;;;5049598;28;20039;-75
2021/08/17 09:50:38;;;;;;;2.75;0.93;;;24.10;86.00;;;;;;5062968;28;20044;-75
2021/08/17 09:53:14;;;;;;;2.17;0.88;;;24.40;87.60;;;;;;5066814;28;21044;-76
2021/08/17 09:55:55;;;;;;;1.63;0.75;;;24.50;85.10;;;;;;5064696;28;20051;-76
2021/08/17 09:58:26;;;;;;;2.22;0.70;;;24.70;87.20;;;;;;5062503;28;20028;-76
2021/08/17 10:00:55;;;;;;;2.15;0.88;;;25.10;87.30;;;;;;5065678;28;20107;-75
2021/08/17 10:03:22;;;;;;;1.48;0.93;;;25.20;88.20;;;;;;5056219;28;20029;-76
2021/08/17 10:05:48;;;;;;;1.60;0.77;;;25.10;84.50;;;;;;5047052;28;20056;-76
2021/08/17 10:08:18;;;;;;;2.25;0.68;;;24.80;84.20;;;;;;5063416;28;20055;-77
2021/08/17 10:10:46;;;;;;;1.27;0.57;;;24.60;82.90;;;;;;5064937;28;20068;-76
2021/08/17 10:13:15;;;;;;;3.38;0.70;;;24.60;83.00;;;;;;5067023;28;20116;-77
2021/08/17 10:15:45;;;;;;;1.63;0.82;;;24.80;84.30;;;;;;5056139;28;20044;-76
2021/08/17 10:18:14;;;;;;;1.33;0.60;;;25.00;82.10;;;;;;5062217;28;20071;-77
2021/08/17 10:20:44;;;;;;;1.02;0.40;;;25.30;85.60;;;;;;5064594;28;20047;-76
2021/08/17 10:23:16;;;;;;;1.75;0.60;;;25.30;83.80;;;;;;5047022;28;20450;-76
2021/08/17 10:25:47;;;;;;;2.53;0.40;;;25.30;83.00;;;;;;5048167;28;20091;-75
2021/08/17 10:28:31;;;;;;;1.90;0.80;;;25.30;80.40;;;;;;5059048;28;20621;-76
2021/08/17 10:31:18;;;;;;;3.03;0.50;;;25.60;85.80;;;;;;5065214;28;20037;-75
2021/08/17 10:33:53;;;;;;;1.45;0.50;;;25.70;82.90;;;;;;5051465;28;20040;-76
2021/08/17 10:36:38;;;;;;;1.42;0.47;;;25.80;82.20;;;;;;5060530;28;20397;-75
2021/08/17 10:39:26;;;;;;;1.08;0.57;;;25.70;78.30;;;;;;5064287;28;20147;-75
2021/08/17 10:41:53;;;;;;;3.70;0.60;;;25.90;82.20;;;;;;5065818;28;20044;-76
2021/08/17 10:44:31;;;;;;;1.05;0.45;;;25.70;78.40;;;;;;5066419;28;20036;-76
2021/08/17 10:47:10;;;;;;;5.38;1.52;;;25.80;79.50;;;;;;5006948;28;20058;-77
2021/08/17 10:49:41;;;;;;;2.17;0.63;;;25.70;83.20;;;;;;5007089;28;20395;-76
2021/08/17 10:52:09;;;;;;;1.05;0.55;;;26.00;80.90;;;;;;5020000;28;20442;-76
2021/08/17 10:54:37;;;;;;;1.55;0.60;;;26.00;79.40;;;;;;5026692;28;20506;-76
2021/08/17 10:57:17;;;;;;;1.85;0.55;;;26.00;79.10;;;;;;5025516;28;20041;-76
2021/08/17 10:59:46;;;;;;;2.70;0.88;;;26.20;80.00;;;;;;5011751;28;20383;-78
2021/08/17 11:02:12;;;;;;;1.30;0.50;;;26.10;79.40;;;;;;5007479;28;20038;-76
2021/08/17 11:04:42;;;;;;;1.15;0.40;;;26.10;75.90;;;;;;5009163;28;20037;-76
2021/08/17 11:07:35;;;;;;;2.78;0.70;;;26.10;75.70;;;;;;5023180;28;20042;-76
2021/08/17 11:10:05;;;;;;;2.33;0.80;;;26.60;78.60;;;;;;5004053;28;20034;-76
2021/08/17 11:12:34;;;;;;;1.38;0.70;;;26.50;76.90;;;;;;5008741;28;20049;-76
2021/08/17 11:15:00;;;;;;;2.10;0.70;;;26.60;77.30;;;;;;5005499;28;20083;-76
2021/08/17 11:17:26;;;;;;;1.48;0.60;;;26.80;75.90;;;;;;5018408;28;20558;-75
2021/08/17 11:19:54;;;;;;;3.65;0.90;;;26.90;78.10;;;;;;5015340;28;20033;-75
2021/08/17 11:22:24;;;;;;;1.73;0.57;;;26.50;78.80;;;;;;5015299;28;20041;-75
2021/08/17 11:24:53;;;;;;;2.22;0.75;;;26.70;79.00;;;;;;5005254;28;20030;-75
2021/08/17 11:27:32;;;;;;;2.30;0.60;;;26.80;77.30;;;;;;5017954;28;20049;-75
2021/08/17 11:30:00;;;;;;;1.77;0.45;;;27.00;78.30;;;;;;5023681;28;20434;-75
2021/08/17 11:32:48;;;;;;;6.80;0.80;;;27.00;78.50;;;;;;5020382;28;20112;-75
2021/08/17 11:35:20;;;;;;;1.30;0.45;;;26.90;78.00;;;;;;5010304;28;20061;-76
2021/08/17 11:37:55;;;;;;;2.07;0.80;;;26.70;76.10;;;;;;5013645;28;20456;-75
2021/08/17 11:40:23;;;;;;;1.50;0.73;;;26.50;77.00;;;;;;5024603;28;20264;-75
2021/08/17 11:42:51;;;;;;;1.48;0.55;;;26.40;76.50;;;;;;5023370;28;20135;-75
2021/08/17 11:45:23;;;;;;;1.77;0.60;;;26.60;78.20;;;;;;5037102;28;20072;-75
2021/08/17 11:47:51;;;;;;;1.48;0.60;;;26.90;79.10;;;;;;5053723;28;20545;-76
2021/08/17 11:50:20;;;;;;;2.03;0.82;;;26.80;79.20;;;;;;5043834;28;20037;-75
2021/08/17 11:52:48;;;;;;;2.13;0.80;;;26.70;76.60;;;;;;5043641;28;20043;-75
2021/08/17 11:55:27;;;;;;;2.47;1.17;;;26.80;75.40;;;;;;5044826;28;20146;-75
2021/08/17 11:57:55;;;;;;;3.60;0.93;;;26.70;78.70;;;;;;5025848;28;20060;-76
2021/08/17 12:00:26;;;;;;;2.70;0.65;;;27.00;77.40;;;;;;5060783;28;20097;-75
2021/08/17 12:02:57;;;;;;;1.33;0.40;;;26.90;74.30;;;;;;5058786;28;20565;-75
2021/08/17 12:05:26;;;;;;;1.60;0.90;;;26.80;77.10;;;;;;5025923;28;20502;-75
2021/08/17 12:07:54;;;;;;;2.92;0.90;;;26.70;76.60;;;;;;5025903;28;20112;-75
2021/08/17 12:10:34;;;;;;;1.75;0.77;;;26.30;77.10;;;;;;5055734;28;20068;-75
2021/08/17 12:13:15;;;;;;;1.80;0.85;;;26.20;77.60;;;;;;5064370;28;20045;-75
2021/08/17 12:15:48;;;;;;;1.70;0.60;;;26.20;79.10;;;;;;5062607;28;20119;-75
2021/08/17 12:18:17;;;;;;;2.25;1.10;;;26.20;75.70;;;;;;5059734;28;20042;-75
2021/08/17 12:20:50;;;;;;;1.83;0.70;;;26.30;78.00;;;;;;5055131;28;20102;-75
2021/08/17 12:23:36;;;;;;;0.93;0.50;;;26.60;78.50;;;;;;5045598;28;20439;-75
2021/08/17 12:26:10;;;;;;;1.98;0.70;;;26.70;78.50;;;;;;5053350;28;20060;-75
2021/08/17 12:28:36;;;;;;;2.55;1.10;;;26.80;78.60;;;;;;5063701;28;20036;-75
2021/08/17 12:31:18;;;;;;;3.72;0.60;;;27.10;79.50;;;;;;5052457;28;20035;-75
2021/08/17 12:33:51;;;;;;;2.97;0.73;;;26.80;78.10;;;;;;5048665;28;20052;-75
2021/08/17 12:36:22;;;;;;;1.77;0.55;;;26.80;75.60;;;;;;5060984;28;20056;-75
2021/08/17 12:38:48;;;;;;;2.78;1.10;;;27.00;78.40;;;;;;5062309;28;20581;-75
2021/08/17 12:41:30;;;;;;;3.55;0.68;;;27.10;77.20;;;;;;5063441;28;20063;-75
2021/08/17 12:43:56;;;;;;;2.47;0.70;;;26.70;77.40;;;;;;5064024;28;20040;-75
2021/08/17 12:46:22;;;;;;;2.40;0.80;;;26.40;77.80;;;;;;5062833;28;20048;-75
2021/08/17 12:48:48;;;;;;;2.58;0.75;;;26.40;80.30;;;;;;5062904;28;20063;-75
2021/08/17 12:51:22;;;;;;;1.73;0.60;;;26.30;79.50;;;;;;5063143;28;20032;-75